sensor_id;sensor_type;location;lat;lon;timestamp;P1;durP1;ratioP1;P2;durP2;ratioP2
13012;SDS011;22580;57.670;12.006;2023-02-15T00:02:21;2.80;;;2.40;;
13012;SDS011;22580;57.670;12.006;2023-02-15T00:04:50;2.40;;;2.20;;
13012;SDS011;22580;57.670;12.006;2023-02-15T00:07:21;2.27;;;2.07;;
13012;SDS011;22580;57.670;12.006;2023-02-15T00:09:51;2.13;;;1.70;;
13012;SDS011;22580;57.670;12.006;2023-02-15T00:12:18;2.40;;;2.20;;
13012;SDS011;22580;57.670;12.006;2023-02-15T00:14:52;1.80;;;1.70;;
13012;SDS011;22580;57.670;12.006;2023-02-15T00:17:23;1.60;;;1.50;;
13012;SDS011;22580;57.670;12.006;2023-02-15T00:19:52;1.80;;;1.70;;
13012;SDS011;22580;57.670;12.006;2023-02-15T00:22:22;1.67;;;1.53;;
13012;SDS011;22580;57.670;12.006;2023-02-15T00:24:49;1.30;;;1.20;;
13012;SDS011;22580;57.670;12.006;2023-02-15T00:27:24;1.13;;;1.03;;
13012;SDS011;22580;57.670;12.006;2023-02-15T00:30:03;5.10;;;3.33;;
13012;SDS011;22580;57.670;12.006;2023-02-15T00:32:53;4.20;;;3.23;;
13012;SDS011;22580;57.670;12.006;2023-02-15T00:35:23;3.50;;;2.70;;
13012;SDS011;22580;57.670;12.006;2023-02-15T00:37:53;3.57;;;3.00;;
13012;SDS011;22580;57.670;12.006;2023-02-15T00:40:23;3.30;;;2.70;;
13012;SDS011;22580;57.670;12.006;2023-02-15T00:42:53;3.20;;;2.83;;
13012;SDS011;22580;57.670;12.006;2023-02-15T00:45:25;2.60;;;2.23;;
13012;SDS011;22580;57.670;12.006;2023-02-15T00:50:41;3.73;;;3.00;;
13012;SDS011;22580;57.670;12.006;2023-02-15T00:53:11;5.00;;;3.50;;
13012;SDS011;22580;57.670;12.006;2023-02-15T00:55:44;4.67;;;3.43;;
13012;SDS011;22580;57.670;12.006;2023-02-15T00:58:11;3.90;;;3.03;;
13012;SDS011;22580;57.670;12.006;2023-02-15T01:00:42;2.80;;;2.50;;
13012;SDS011;22580;57.670;12.006;2023-02-15T01:03:10;4.23;;;3.17;;
13012;SDS011;22580;57.670;12.006;2023-02-15T01:05:44;3.63;;;2.83;;
13012;SDS011;22580;57.670;12.006;2023-02-15T01:08:25;7.60;;;5.37;;
13012;SDS011;22580;57.670;12.006;2023-02-15T01:11:02;8.50;;;5.47;;
13012;SDS011;22580;57.670;12.006;2023-02-15T01:13:31;5.50;;;4.30;;
13012;SDS011;22580;57.670;12.006;2023-02-15T01:16:03;5.50;;;4.20;;
13012;SDS011;22580;57.670;12.006;2023-02-15T01:18:30;4.53;;;3.30;;
13012;SDS011;22580;57.670;12.006;2023-02-15T01:21:00;3.13;;;2.53;;
13012;SDS011;22580;57.670;12.006;2023-02-15T01:23:44;2.83;;;2.40;;
13012;SDS011;22580;57.670;12.006;2023-02-15T01:26:24;2.40;;;2.00;;
13012;SDS011;22580;57.670;12.006;2023-02-15T01:29:03;1.60;;;1.50;;
13012;SDS011;22580;57.670;12.006;2023-02-15T01:31:32;1.70;;;1.60;;
13012;SDS011;22580;57.670;12.006;2023-02-15T01:34:01;1.23;;;1.13;;
13012;SDS011;22580;57.670;12.006;2023-02-15T01:36:28;1.20;;;1.10;;
13012;SDS011;22580;57.670;12.006;2023-02-15T01:39:02;1.10;;;1.00;;
13012;SDS011;22580;57.670;12.006;2023-02-15T01:41:32;2.87;;;2.20;;
13012;SDS011;22580;57.670;12.006;2023-02-15T01:47:34;3.60;;;3.00;;
13012;SDS011;22580;57.670;12.006;2023-02-15T01:50:12;4.70;;;3.30;;
13012;SDS011;22580;57.670;12.006;2023-02-15T01:52:50;4.90;;;3.50;;
13012;SDS011;22580;57.670;12.006;2023-02-15T01:55:21;3.07;;;2.70;;
13012;SDS011;22580;57.670;12.006;2023-02-15T01:57:52;2.77;;;2.17;;
13012;SDS011;22580;57.670;12.006;2023-02-15T02:00:22;2.80;;;2.50;;
13012;SDS011;22580;57.670;12.006;2023-02-15T02:02:54;3.53;;;2.50;;
13012;SDS011;22580;57.670;12.006;2023-02-15T02:05:32;3.17;;;2.57;;
13012;SDS011;22580;57.670;12.006;2023-02-15T02:08:02;2.50;;;2.20;;
13012;SDS011;22580;57.670;12.006;2023-02-15T02:10:32;4.77;;;3.40;;
13012;SDS011;22580;57.670;12.006;2023-02-15T02:12:59;3.50;;;2.80;;
13012;SDS011;22580;57.670;12.006;2023-02-15T02:15:33;4.00;;;3.20;;
13012;SDS011;22580;57.670;12.006;2023-02-15T02:18:35;2.70;;;2.40;;
13012;SDS011;22580;57.670;12.006;2023-02-15T02:27:36;2.60;;;2.23;;
13012;SDS011;22580;57.670;12.006;2023-02-15T02:30:22;2.30;;;2.10;;
13012;SDS011;22580;57.670;12.006;2023-02-15T02:33:21;2.00;;;1.80;;
13012;SDS011;22580;57.670;12.006;2023-02-15T02:36:14;1.40;;;1.30;;
13012;SDS011;22580;57.670;12.006;2023-02-15T02:38:52;1.63;;;1.50;;
13012;SDS011;22580;57.670;12.006;2023-02-15T02:41:39;2.40;;;2.13;;
13012;SDS011;22580;57.670;12.006;2023-02-15T02:44:22;2.00;;;1.80;;
13012;SDS011;22580;57.670;12.006;2023-02-15T02:47:06;1.80;;;1.57;;
13012;SDS011;22580;57.670;12.006;2023-02-15T02:50:03;1.63;;;1.40;;
13012;SDS011;22580;57.670;12.006;2023-02-15T02:52:52;1.57;;;1.40;;
13012;SDS011;22580;57.670;12.006;2023-02-15T02:55:24;2.00;;;1.80;;
13012;SDS011;22580;57.670;12.006;2023-02-15T02:58:15;2.00;;;1.80;;
13012;SDS011;22580;57.670;12.006;2023-02-15T03:00:50;1.37;;;1.27;;
13012;SDS011;22580;57.670;12.006;2023-02-15T03:03:24;2.03;;;1.90;;
13012;SDS011;22580;57.670;12.006;2023-02-15T03:05:59;2.30;;;1.90;;
13012;SDS011;22580;57.670;12.006;2023-02-15T03:08:45;2.87;;;2.37;;
13012;SDS011;22580;57.670;12.006;2023-02-15T03:11:15;2.83;;;2.30;;
13012;SDS011;22580;57.670;12.006;2023-02-15T03:13:52;2.20;;;2.00;;
13012;SDS011;22580;57.670;12.006;2023-02-15T03:16:21;1.80;;;1.63;;
13012;SDS011;22580;57.670;12.006;2023-02-15T03:24:53;2.67;;;2.23;;
13012;SDS011;22580;57.670;12.006;2023-02-15T03:30:24;1.87;;;1.53;;
13012;SDS011;22580;57.670;12.006;2023-02-15T03:32:59;1.70;;;1.60;;
13012;SDS011;22580;57.670;12.006;2023-02-15T03:35:33;1.67;;;1.57;;
13012;SDS011;22580;57.670;12.006;2023-02-15T03:38:33;2.07;;;1.63;;
13012;SDS011;22580;57.670;12.006;2023-02-15T03:41:22;2.77;;;2.30;;
13012;SDS011;22580;57.670;12.006;2023-02-15T03:43:53;3.37;;;2.60;;
13012;SDS011;22580;57.670;12.006;2023-02-15T03:49:36;2.40;;;2.10;;
13012;SDS011;22580;57.670;12.006;2023-02-15T03:52:13;2.73;;;2.10;;
13012;SDS011;22580;57.670;12.006;2023-02-15T03:57:53;2.70;;;2.37;;
13012;SDS011;22580;57.670;12.006;2023-02-15T04:00:46;3.03;;;2.63;;
13012;SDS011;22580;57.670;12.006;2023-02-15T04:03:39;2.93;;;2.50;;
13012;SDS011;22580;57.670;12.006;2023-02-15T04:06:22;2.93;;;2.63;;
13012;SDS011;22580;57.670;12.006;2023-02-15T04:08:51;3.00;;;2.47;;
13012;SDS011;22580;57.670;12.006;2023-02-15T04:11:36;2.97;;;2.43;;
13012;SDS011;22580;57.670;12.006;2023-02-15T04:14:12;3.87;;;2.60;;
13012;SDS011;22580;57.670;12.006;2023-02-15T04:16:52;4.60;;;3.03;;
13012;SDS011;22580;57.670;12.006;2023-02-15T04:19:23;4.43;;;2.90;;
13012;SDS011;22580;57.670;12.006;2023-02-15T04:22:13;4.87;;;3.53;;
13012;SDS011;22580;57.670;12.006;2023-02-15T04:24:58;4.40;;;3.40;;
13012;SDS011;22580;57.670;12.006;2023-02-15T04:27:42;4.67;;;3.50;;
13012;SDS011;22580;57.670;12.006;2023-02-15T04:30:11;9.30;;;6.10;;
13012;SDS011;22580;57.670;12.006;2023-02-15T04:32:42;7.23;;;5.17;;
13012;SDS011;22580;57.670;12.006;2023-02-15T04:35:12;6.57;;;4.70;;
13012;SDS011;22580;57.670;12.006;2023-02-15T04:37:43;7.30;;;5.13;;
13012;SDS011;22580;57.670;12.006;2023-02-15T04:40:13;7.67;;;5.27;;
13012;SDS011;22580;57.670;12.006;2023-02-15T04:42:42;7.37;;;4.80;;
13012;SDS011;22580;57.670;12.006;2023-02-15T04:45:12;5.83;;;4.43;;
13012;SDS011;22580;57.670;12.006;2023-02-15T04:47:44;6.87;;;4.50;;
13012;SDS011;22580;57.670;12.006;2023-02-15T04:50:31;6.30;;;4.70;;
13012;SDS011;22580;57.670;12.006;2023-02-15T04:53:01;5.10;;;3.77;;
13012;SDS011;22580;57.670;12.006;2023-02-15T04:55:31;5.10;;;3.77;;
13012;SDS011;22580;57.670;12.006;2023-02-15T04:58:02;5.57;;;4.10;;
13012;SDS011;22580;57.670;12.006;2023-02-15T05:00:32;3.77;;;2.93;;
13012;SDS011;22580;57.670;12.006;2023-02-15T05:02:59;5.00;;;3.50;;
13012;SDS011;22580;57.670;12.006;2023-02-15T05:05:35;7.70;;;5.07;;
13012;SDS011;22580;57.670;12.006;2023-02-15T05:08:12;6.47;;;4.70;;
13012;SDS011;22580;57.670;12.006;2023-02-15T05:10:42;6.30;;;4.60;;
13012;SDS011;22580;57.670;12.006;2023-02-15T05:13:13;5.80;;;4.43;;
13012;SDS011;22580;57.670;12.006;2023-02-15T05:15:52;5.40;;;3.83;;
13012;SDS011;22580;57.670;12.006;2023-02-15T05:18:34;7.33;;;5.00;;
13012;SDS011;22580;57.670;12.006;2023-02-15T05:21:01;6.83;;;4.33;;
13012;SDS011;22580;57.670;12.006;2023-02-15T05:23:40;7.23;;;5.27;;
13012;SDS011;22580;57.670;12.006;2023-02-15T05:26:15;6.47;;;4.90;;
13012;SDS011;22580;57.670;12.006;2023-02-15T05:29:14;8.50;;;5.87;;
13012;SDS011;22580;57.670;12.006;2023-02-15T05:31:54;10.30;;;7.10;;
13012;SDS011;22580;57.670;12.006;2023-02-15T05:34:23;10.03;;;6.53;;
13012;SDS011;22580;57.670;12.006;2023-02-15T05:36:53;6.97;;;4.80;;
13012;SDS011;22580;57.670;12.006;2023-02-15T05:39:33;6.73;;;4.67;;
13012;SDS011;22580;57.670;12.006;2023-02-15T05:42:11;7.40;;;5.03;;
13012;SDS011;22580;57.670;12.006;2023-02-15T05:44:42;8.50;;;5.50;;
13012;SDS011;22580;57.670;12.006;2023-02-15T05:47:15;7.73;;;5.10;;
13012;SDS011;22580;57.670;12.006;2023-02-15T05:50:11;6.67;;;4.67;;
13012;SDS011;22580;57.670;12.006;2023-02-15T05:55:23;5.73;;;3.80;;
13012;SDS011;22580;57.670;12.006;2023-02-15T05:57:53;6.47;;;4.47;;
13012;SDS011;22580;57.670;12.006;2023-02-15T06:00:23;5.57;;;4.13;;
13012;SDS011;22580;57.670;12.006;2023-02-15T06:02:53;5.90;;;4.10;;
13012;SDS011;22580;57.670;12.006;2023-02-15T06:05:23;5.93;;;4.17;;
13012;SDS011;22580;57.670;12.006;2023-02-15T06:07:53;4.70;;;3.90;;
13012;SDS011;22580;57.670;12.006;2023-02-15T06:10:42;5.23;;;4.07;;
13012;SDS011;22580;57.670;12.006;2023-02-15T06:13:12;5.67;;;3.93;;
13012;SDS011;22580;57.670;12.006;2023-02-15T06:15:45;4.47;;;3.50;;
13012;SDS011;22580;57.670;12.006;2023-02-15T06:18:23;4.50;;;3.37;;
13012;SDS011;22580;57.670;12.006;2023-02-15T06:20:54;4.60;;;3.43;;
13012;SDS011;22580;57.670;12.006;2023-02-15T06:23:32;4.40;;;3.23;;
13012;SDS011;22580;57.670;12.006;2023-02-15T06:26:13;5.10;;;4.00;;
13012;SDS011;22580;57.670;12.006;2023-02-15T06:28:42;5.63;;;4.00;;
13012;SDS011;22580;57.670;12.006;2023-02-15T06:31:14;5.37;;;4.10;;
13012;SDS011;22580;57.670;12.006;2023-02-15T06:33:41;7.17;;;5.13;;
13012;SDS011;22580;57.670;12.006;2023-02-15T06:36:14;7.53;;;5.60;;
13012;SDS011;22580;57.670;12.006;2023-02-15T06:38:41;8.63;;;5.77;;
13012;SDS011;22580;57.670;12.006;2023-02-15T06:41:11;6.53;;;4.67;;
13012;SDS011;22580;57.670;12.006;2023-02-15T06:43:44;6.47;;;4.80;;
13012;SDS011;22580;57.670;12.006;2023-02-15T06:46:22;7.27;;;5.07;;
13012;SDS011;22580;57.670;12.006;2023-02-15T06:48:50;6.13;;;4.57;;
13012;SDS011;22580;57.670;12.006;2023-02-15T06:51:17;5.13;;;3.93;;
13012;SDS011;22580;57.670;12.006;2023-02-15T06:53:52;5.67;;;4.50;;
13012;SDS011;22580;57.670;12.006;2023-02-15T06:56:21;7.27;;;5.23;;
13012;SDS011;22580;57.670;12.006;2023-02-15T06:58:54;7.17;;;4.87;;
13012;SDS011;22580;57.670;12.006;2023-02-15T07:01:27;7.10;;;4.90;;
13012;SDS011;22580;57.670;12.006;2023-02-15T07:04:03;5.60;;;4.10;;
13012;SDS011;22580;57.670;12.006;2023-02-15T07:06:30;5.37;;;3.87;;
13012;SDS011;22580;57.670;12.006;2023-02-15T07:09:00;4.00;;;3.27;;
13012;SDS011;22580;57.670;12.006;2023-02-15T07:11:30;3.60;;;3.00;;
13012;SDS011;22580;57.670;12.006;2023-02-15T07:14:14;6.27;;;4.50;;
13012;SDS011;22580;57.670;12.006;2023-02-15T07:16:45;6.33;;;4.70;;
13012;SDS011;22580;57.670;12.006;2023-02-15T07:19:16;7.07;;;5.50;;
13012;SDS011;22580;57.670;12.006;2023-02-15T07:21:43;7.20;;;4.90;;
13012;SDS011;22580;57.670;12.006;2023-02-15T07:24:12;5.83;;;4.30;;
13012;SDS011;22580;57.670;12.006;2023-02-15T07:26:41;5.00;;;3.60;;
13012;SDS011;22580;57.670;12.006;2023-02-15T07:29:09;4.53;;;3.63;;
13012;SDS011;22580;57.670;12.006;2023-02-15T07:31:44;3.77;;;3.10;;
13012;SDS011;22580;57.670;12.006;2023-02-15T07:34:16;3.93;;;2.97;;
13012;SDS011;22580;57.670;12.006;2023-02-15T07:36:49;4.07;;;3.13;;
13012;SDS011;22580;57.670;12.006;2023-02-15T07:39:22;3.43;;;2.80;;
13012;SDS011;22580;57.670;12.006;2023-02-15T07:41:55;2.87;;;2.33;;
13012;SDS011;22580;57.670;12.006;2023-02-15T07:44:26;4.47;;;3.47;;
13012;SDS011;22580;57.670;12.006;2023-02-15T07:46:59;7.37;;;5.03;;
13012;SDS011;22580;57.670;12.006;2023-02-15T07:49:27;4.93;;;3.93;;
13012;SDS011;22580;57.670;12.006;2023-02-15T07:51:55;5.50;;;3.90;;
13012;SDS011;22580;57.670;12.006;2023-02-15T07:54:35;5.30;;;3.90;;
13012;SDS011;22580;57.670;12.006;2023-02-15T07:57:02;5.63;;;4.07;;
13012;SDS011;22580;57.670;12.006;2023-02-15T07:59:32;5.20;;;3.83;;
13012;SDS011;22580;57.670;12.006;2023-02-15T08:02:00;7.30;;;5.30;;
13012;SDS011;22580;57.670;12.006;2023-02-15T08:04:27;5.43;;;3.67;;
13012;SDS011;22580;57.670;12.006;2023-02-15T08:06:57;4.27;;;3.30;;
13012;SDS011;22580;57.670;12.006;2023-02-15T08:09:24;3.40;;;2.93;;
13012;SDS011;22580;57.670;12.006;2023-02-15T08:11:51;2.93;;;2.30;;
13012;SDS011;22580;57.670;12.006;2023-02-15T08:14:19;3.60;;;2.50;;
13012;SDS011;22580;57.670;12.006;2023-02-15T08:16:48;2.67;;;2.23;;
13012;SDS011;22580;57.670;12.006;2023-02-15T08:19:31;2.73;;;2.20;;
13012;SDS011;22580;57.670;12.006;2023-02-15T08:22:03;1.93;;;1.73;;
13012;SDS011;22580;57.670;12.006;2023-02-15T08:24:32;2.90;;;2.37;;
13012;SDS011;22580;57.670;12.006;2023-02-15T08:27:02;3.73;;;2.93;;
13012;SDS011;22580;57.670;12.006;2023-02-15T08:29:31;4.37;;;3.30;;
13012;SDS011;22580;57.670;12.006;2023-02-15T08:32:03;5.17;;;3.53;;
13012;SDS011;22580;57.670;12.006;2023-02-15T08:34:33;5.97;;;4.13;;
13012;SDS011;22580;57.670;12.006;2023-02-15T08:37:15;4.63;;;3.43;;
13012;SDS011;22580;57.670;12.006;2023-02-15T08:39:42;5.17;;;3.83;;
13012;SDS011;22580;57.670;12.006;2023-02-15T08:42:13;5.27;;;3.80;;
13012;SDS011;22580;57.670;12.006;2023-02-15T08:44:44;7.27;;;5.03;;
13012;SDS011;22580;57.670;12.006;2023-02-15T08:47:24;7.10;;;5.27;;
13012;SDS011;22580;57.670;12.006;2023-02-15T08:53:13;5.77;;;3.87;;
13012;SDS011;22580;57.670;12.006;2023-02-15T08:56:02;5.17;;;3.93;;
13012;SDS011;22580;57.670;12.006;2023-02-15T08:58:33;6.03;;;4.10;;
13012;SDS011;22580;57.670;12.006;2023-02-15T09:01:12;6.20;;;4.27;;
13012;SDS011;22580;57.670;12.006;2023-02-15T09:03:43;7.90;;;5.60;;
13012;SDS011;22580;57.670;12.006;2023-02-15T09:06:12;7.60;;;5.43;;
13012;SDS011;22580;57.670;12.006;2023-02-15T09:08:43;6.67;;;4.80;;
13012;SDS011;22580;57.670;12.006;2023-02-15T09:11:11;7.60;;;5.13;;
13012;SDS011;22580;57.670;12.006;2023-02-15T09:13:48;6.10;;;4.13;;
13012;SDS011;22580;57.670;12.006;2023-02-15T09:16:21;4.70;;;3.63;;
13012;SDS011;22580;57.670;12.006;2023-02-15T09:18:49;4.93;;;3.80;;
13012;SDS011;22580;57.670;12.006;2023-02-15T09:21:22;4.67;;;3.57;;
13012;SDS011;22580;57.670;12.006;2023-02-15T09:23:55;5.30;;;3.87;;
13012;SDS011;22580;57.670;12.006;2023-02-15T09:26:27;4.90;;;3.77;;
13012;SDS011;22580;57.670;12.006;2023-02-15T09:29:00;6.40;;;4.60;;
13012;SDS011;22580;57.670;12.006;2023-02-15T09:31:37;7.87;;;4.97;;
13012;SDS011;22580;57.670;12.006;2023-02-15T09:34:11;6.00;;;4.50;;
13012;SDS011;22580;57.670;12.006;2023-02-15T09:36:43;6.90;;;4.60;;
13012;SDS011;22580;57.670;12.006;2023-02-15T09:39:15;8.03;;;5.10;;
13012;SDS011;22580;57.670;12.006;2023-02-15T09:41:54;7.60;;;5.40;;
13012;SDS011;22580;57.670;12.006;2023-02-15T09:44:46;6.07;;;4.53;;
13012;SDS011;22580;57.670;12.006;2023-02-15T09:47:56;9.43;;;5.60;;
13012;SDS011;22580;57.670;12.006;2023-02-15T09:50:53;8.60;;;6.47;;
13012;SDS011;22580;57.670;12.006;2023-02-15T09:53:53;9.77;;;6.27;;
13012;SDS011;22580;57.670;12.006;2023-02-15T09:59:40;9.23;;;5.57;;
13012;SDS011;22580;57.670;12.006;2023-02-15T10:02:23;7.63;;;5.27;;
13012;SDS011;22580;57.670;12.006;2023-02-15T10:05:11;8.00;;;5.43;;
13012;SDS011;22580;57.670;12.006;2023-02-15T10:08:05;7.00;;;4.80;;
13012;SDS011;22580;57.670;12.006;2023-02-15T10:11:03;8.40;;;5.90;;
13012;SDS011;22580;57.670;12.006;2023-02-15T10:40:27;7.33;;;5.33;;
13012;SDS011;22580;57.670;12.006;2023-02-15T10:43:27;8.13;;;5.77;;
13012;SDS011;22580;57.670;12.006;2023-02-15T10:46:26;8.60;;;6.30;;
13012;SDS011;22580;57.670;12.006;2023-02-15T10:49:17;8.37;;;6.40;;
13012;SDS011;22580;57.670;12.006;2023-02-15T10:55:05;7.87;;;5.37;;
13012;SDS011;22580;57.670;12.006;2023-02-15T10:57:45;7.43;;;5.17;;
13012;SDS011;22580;57.670;12.006;2023-02-15T11:00:35;7.70;;;5.77;;
13012;SDS011;22580;57.670;12.006;2023-02-15T11:03:26;7.63;;;5.17;;
13012;SDS011;22580;57.670;12.006;2023-02-15T11:06:13;7.40;;;5.13;;
13012;SDS011;22580;57.670;12.006;2023-02-15T11:08:56;8.50;;;5.50;;
13012;SDS011;22580;57.670;12.006;2023-02-15T11:11:34;7.10;;;4.60;;
13012;SDS011;22580;57.670;12.006;2023-02-15T11:14:23;5.07;;;3.70;;
13012;SDS011;22580;57.670;12.006;2023-02-15T11:17:23;3.90;;;3.23;;
13012;SDS011;22580;57.670;12.006;2023-02-15T11:20:05;4.63;;;3.40;;
13012;SDS011;22580;57.670;12.006;2023-02-15T11:23:12;3.67;;;3.03;;
13012;SDS011;22580;57.670;12.006;2023-02-15T11:25:56;4.23;;;3.43;;
13012;SDS011;22580;57.670;12.006;2023-02-15T11:28:34;7.07;;;5.27;;
13012;SDS011;22580;57.670;12.006;2023-02-15T11:31:13;6.23;;;4.83;;
13012;SDS011;22580;57.670;12.006;2023-02-15T11:33:55;5.17;;;3.70;;
13012;SDS011;22580;57.670;12.006;2023-02-15T11:36:41;3.87;;;3.20;;
13012;SDS011;22580;57.670;12.006;2023-02-15T11:39:14;4.10;;;3.40;;
13012;SDS011;22580;57.670;12.006;2023-02-15T11:42:13;5.40;;;3.83;;
13012;SDS011;22580;57.670;12.006;2023-02-15T11:44:56;7.30;;;5.03;;
13012;SDS011;22580;57.670;12.006;2023-02-15T11:47:33;6.60;;;4.67;;
13012;SDS011;22580;57.670;12.006;2023-02-15T11:52:52;10.20;;;6.90;;
13012;SDS011;22580;57.670;12.006;2023-02-15T11:55:33;9.00;;;5.90;;
13012;SDS011;22580;57.670;12.006;2023-02-15T11:58:02;8.47;;;5.87;;
13012;SDS011;22580;57.670;12.006;2023-02-15T12:01:02;5.50;;;3.97;;
13012;SDS011;22580;57.670;12.006;2023-02-15T12:06:44;3.80;;;3.07;;
13012;SDS011;22580;57.670;12.006;2023-02-15T12:09:23;4.47;;;3.20;;
13012;SDS011;22580;57.670;12.006;2023-02-15T12:12:22;4.33;;;3.13;;
13012;SDS011;22580;57.670;12.006;2023-02-15T12:14:54;10.10;;;6.80;;
13012;SDS011;22580;57.670;12.006;2023-02-15T12:17:33;10.13;;;6.37;;
13012;SDS011;22580;57.670;12.006;2023-02-15T12:23:12;9.50;;;6.33;;
13012;SDS011;22580;57.670;12.006;2023-02-15T12:28:34;7.83;;;5.53;;
13012;SDS011;22580;57.670;12.006;2023-02-15T12:31:20;6.73;;;4.90;;
13012;SDS011;22580;57.670;12.006;2023-02-15T12:34:12;13.27;;;7.90;;
13012;SDS011;22580;57.670;12.006;2023-02-15T12:36:55;9.80;;;6.60;;
13012;SDS011;22580;57.670;12.006;2023-02-15T12:39:50;6.27;;;5.13;;
13012;SDS011;22580;57.670;12.006;2023-02-15T12:42:22;7.87;;;5.87;;
13012;SDS011;22580;57.670;12.006;2023-02-15T12:44:57;7.57;;;5.70;;
13012;SDS011;22580;57.670;12.006;2023-02-15T12:50:15;6.63;;;4.67;;
13012;SDS011;22580;57.670;12.006;2023-02-15T12:53:05;5.90;;;4.13;;
13012;SDS011;22580;57.670;12.006;2023-02-15T12:58:32;8.83;;;5.63;;
13012;SDS011;22580;57.670;12.006;2023-02-15T13:01:08;8.03;;;5.53;;
13012;SDS011;22580;57.670;12.006;2023-02-15T13:04:05;7.90;;;5.23;;
13012;SDS011;22580;57.670;12.006;2023-02-15T13:06:46;8.20;;;5.97;;
13012;SDS011;22580;57.670;12.006;2023-02-15T13:12:15;9.67;;;6.77;;
13012;SDS011;22580;57.670;12.006;2023-02-15T13:15:02;9.07;;;5.63;;
13012;SDS011;22580;57.670;12.006;2023-02-15T13:17:33;7.73;;;5.50;;
13012;SDS011;22580;57.670;12.006;2023-02-15T13:20:02;6.73;;;4.77;;
13012;SDS011;22580;57.670;12.006;2023-02-15T13:22:42;7.20;;;5.00;;
13012;SDS011;22580;57.670;12.006;2023-02-15T13:25:37;6.50;;;4.67;;
13012;SDS011;22580;57.670;12.006;2023-02-15T13:28:44;8.27;;;5.80;;
13012;SDS011;22580;57.670;12.006;2023-02-15T13:31:32;7.73;;;6.03;;
13012;SDS011;22580;57.670;12.006;2023-02-15T13:34:03;10.30;;;6.93;;
13012;SDS011;22580;57.670;12.006;2023-02-15T13:36:54;12.00;;;8.07;;
13012;SDS011;22580;57.670;12.006;2023-02-15T13:39:43;10.47;;;6.93;;
13012;SDS011;22580;57.670;12.006;2023-02-15T13:42:34;9.67;;;6.23;;
13012;SDS011;22580;57.670;12.006;2023-02-15T13:48:27;8.33;;;5.93;;
13012;SDS011;22580;57.670;12.006;2023-02-15T13:51:34;9.80;;;6.47;;
13012;SDS011;22580;57.670;12.006;2023-02-15T13:54:34;8.27;;;5.67;;
13012;SDS011;22580;57.670;12.006;2023-02-15T13:57:29;11.33;;;7.57;;
13012;SDS011;22580;57.670;12.006;2023-02-15T14:00:20;10.57;;;7.00;;
13012;SDS011;22580;57.670;12.006;2023-02-15T14:03:10;8.30;;;6.23;;
13012;SDS011;22580;57.670;12.006;2023-02-15T14:06:07;9.70;;;6.50;;
13012;SDS011;22580;57.670;12.006;2023-02-15T14:08:54;7.20;;;5.13;;
13012;SDS011;22580;57.670;12.006;2023-02-15T14:11:44;8.60;;;5.97;;
13012;SDS011;22580;57.670;12.006;2023-02-15T14:14:45;8.10;;;5.73;;
13012;SDS011;22580;57.670;12.006;2023-02-15T14:17:35;8.40;;;5.97;;
13012;SDS011;22580;57.670;12.006;2023-02-15T14:20:36;7.03;;;5.10;;
13012;SDS011;22580;57.670;12.006;2023-02-15T14:23:23;7.87;;;5.20;;
13012;SDS011;22580;57.670;12.006;2023-02-15T14:26:17;9.70;;;6.57;;
13012;SDS011;22580;57.670;12.006;2023-02-15T14:29:02;8.57;;;5.97;;
13012;SDS011;22580;57.670;12.006;2023-02-15T14:37:54;8.37;;;5.73;;
13012;SDS011;22580;57.670;12.006;2023-02-15T14:40:34;6.57;;;4.80;;
13012;SDS011;22580;57.670;12.006;2023-02-15T14:43:45;6.13;;;4.30;;
13012;SDS011;22580;57.670;12.006;2023-02-15T14:46:45;4.73;;;3.80;;
13012;SDS011;22580;57.670;12.006;2023-02-15T14:52:16;5.23;;;3.50;;
13012;SDS011;22580;57.670;12.006;2023-02-15T14:55:04;4.63;;;3.53;;
13012;SDS011;22580;57.670;12.006;2023-02-15T15:01:16;6.73;;;4.63;;
13012;SDS011;22580;57.670;12.006;2023-02-15T15:03:53;6.60;;;4.53;;
13012;SDS011;22580;57.670;12.006;2023-02-15T15:06:43;6.23;;;4.47;;
13012;SDS011;22580;57.670;12.006;2023-02-15T15:09:14;7.80;;;5.20;;
13012;SDS011;22580;57.670;12.006;2023-02-15T15:15:32;9.90;;;5.93;;
13012;SDS011;22580;57.670;12.006;2023-02-15T15:21:25;6.30;;;4.50;;
13012;SDS011;22580;57.670;12.006;2023-02-15T15:24:45;6.87;;;4.67;;
13012;SDS011;22580;57.670;12.006;2023-02-15T15:27:43;6.70;;;4.50;;
13012;SDS011;22580;57.670;12.006;2023-02-15T15:37:04;6.93;;;4.90;;
13012;SDS011;22580;57.670;12.006;2023-02-15T15:43:32;7.93;;;5.47;;
13012;SDS011;22580;57.670;12.006;2023-02-15T15:46:24;5.70;;;4.60;;
13012;SDS011;22580;57.670;12.006;2023-02-15T15:49:15;8.07;;;5.70;;
13012;SDS011;22580;57.670;12.006;2023-02-15T15:52:08;7.77;;;5.10;;
13012;SDS011;22580;57.670;12.006;2023-02-15T15:54:44;7.63;;;5.20;;
13012;SDS011;22580;57.670;12.006;2023-02-15T15:57:27;7.63;;;5.57;;
13012;SDS011;22580;57.670;12.006;2023-02-15T16:00:22;8.73;;;6.17;;
13012;SDS011;22580;57.670;12.006;2023-02-15T16:03:03;7.57;;;5.23;;
13012;SDS011;22580;57.670;12.006;2023-02-15T16:05:34;6.90;;;5.37;;
13012;SDS011;22580;57.670;12.006;2023-02-15T16:08:04;8.13;;;5.17;;
13012;SDS011;22580;57.670;12.006;2023-02-15T16:10:55;6.47;;;4.37;;
13012;SDS011;22580;57.670;12.006;2023-02-15T16:13:35;6.30;;;4.37;;
13012;SDS011;22580;57.670;12.006;2023-02-15T16:16:11;8.63;;;5.87;;
13012;SDS011;22580;57.670;12.006;2023-02-15T16:21:25;9.33;;;6.10;;
13012;SDS011;22580;57.670;12.006;2023-02-15T16:24:02;9.53;;;6.10;;
13012;SDS011;22580;57.670;12.006;2023-02-15T16:27:03;11.27;;;7.07;;
13012;SDS011;22580;57.670;12.006;2023-02-15T16:30:23;9.60;;;6.27;;
13012;SDS011;22580;57.670;12.006;2023-02-15T16:33:12;9.97;;;6.10;;
13012;SDS011;22580;57.670;12.006;2023-02-15T16:35:54;10.43;;;6.47;;
13012;SDS011;22580;57.670;12.006;2023-02-15T16:38:34;10.00;;;6.57;;
13012;SDS011;22580;57.670;12.006;2023-02-15T16:41:44;9.10;;;6.30;;
13012;SDS011;22580;57.670;12.006;2023-02-15T16:44:23;8.40;;;5.90;;
13012;SDS011;22580;57.670;12.006;2023-02-15T16:47:03;8.30;;;6.00;;
13012;SDS011;22580;57.670;12.006;2023-02-15T16:49:30;9.03;;;5.83;;
13012;SDS011;22580;57.670;12.006;2023-02-15T16:52:01;8.03;;;5.13;;
13012;SDS011;22580;57.670;12.006;2023-02-15T16:54:32;7.50;;;4.90;;
13012;SDS011;22580;57.670;12.006;2023-02-15T16:57:02;8.60;;;5.47;;
13012;SDS011;22580;57.670;12.006;2023-02-15T16:59:33;12.67;;;7.07;;
13012;SDS011;22580;57.670;12.006;2023-02-15T17:02:17;9.47;;;6.47;;
13012;SDS011;22580;57.670;12.006;2023-02-15T17:05:07;7.30;;;5.57;;
13012;SDS011;22580;57.670;12.006;2023-02-15T17:07:48;10.93;;;6.53;;
13012;SDS011;22580;57.670;12.006;2023-02-15T17:10:32;9.73;;;6.00;;
13012;SDS011;22580;57.670;12.006;2023-02-15T17:13:03;7.87;;;5.57;;
13012;SDS011;22580;57.670;12.006;2023-02-15T17:15:43;11.83;;;7.70;;
13012;SDS011;22580;57.670;12.006;2023-02-15T17:18:48;11.77;;;6.90;;
13012;SDS011;22580;57.670;12.006;2023-02-15T17:21:18;10.33;;;6.50;;
13012;SDS011;22580;57.670;12.006;2023-02-15T17:23:49;9.63;;;6.20;;
13012;SDS011;22580;57.670;12.006;2023-02-15T17:26:24;10.43;;;5.87;;
13012;SDS011;22580;57.670;12.006;2023-02-15T17:28:59;8.90;;;5.93;;
13012;SDS011;22580;57.670;12.006;2023-02-15T17:31:30;9.23;;;5.70;;
13012;SDS011;22580;57.670;12.006;2023-02-15T17:34:02;10.17;;;6.57;;
13012;SDS011;22580;57.670;12.006;2023-02-15T17:36:30;8.13;;;5.93;;
13012;SDS011;22580;57.670;12.006;2023-02-15T17:39:02;8.47;;;5.60;;
13012;SDS011;22580;57.670;12.006;2023-02-15T17:41:36;9.03;;;6.13;;
13012;SDS011;22580;57.670;12.006;2023-02-15T17:44:05;7.80;;;5.13;;